Trinidad, Colorado
Current Conditions -  °F | °C
As of 2:54 PM on Monday 24 Nov 2014 (Local Time) from KTAD Reporting Station
Broken Clouds Broken Clouds  
Wind Chill: 30°   Ceiling: 9000
Heat Index: 36°   Visibility: 10mi
Dew Point: 16°   Wind: 7mph
Humidity: 44%   Direction: 320°NW
Pressure: 30.02"   Gusts: NA
Location:  37.17°N, 104.51°W
Report Text: KTAD 242154Z AUTO 32006KT 10SM BKN090 BKN100 02/M09 A3002 RMK AO2 SLP187 T00221089
Loading
Personal Weather Stations






























Interactive Weather Map New forecast layout! Learn more

10-Day Weather Forecast

Advertisements
Track Severe Weather on mobile